Time;durP1;ratioP1;P1;durP2;ratioP2;P2;SDS_P1;SDS_P2;PMS_P1;PMS_P2;Temp;Humidity;BMP_temperature;BMP_pressure;BME280_temperature;BME280_humidity;BME280_pressure;Samples;Min_cycle;Max_cycle;Signal;HPM_P1;HPM_P2
2023/08/07 00:01:37;;;;;;;1.27;0.50;;;;;;;;;;5068950;28;20040;-69
2023/08/07 00:04:03;;;;;;;0.65;0.38;;;;;;;;;;5070508;28;20357;-69
2023/08/07 00:06:29;;;;;;;2.75;1.00;;;;;;;;;;5070356;28;20075;-69
2023/08/07 00:08:55;;;;;;;1.25;0.50;;;;;;;;;;5070272;28;20095;-67
2023/08/07 00:11:21;;;;;;;1.92;0.73;;;;;;;;;;5070365;28;20032;-68
2023/08/07 00:13:47;;;;;;;1.52;0.70;;;;;;;;;;5070632;28;20358;-69
2023/08/07 00:16:13;;;;;;;1.20;0.60;;;;;;;;;;5070102;28;20032;-68
2023/08/07 00:18:57;;;;;;;1.58;0.70;;;;;;;;;;5071350;28;20379;-67
2023/08/07 00:21:23;;;;;;;2.65;0.80;;;;;;;;;;5071040;28;20029;-67
2023/08/07 00:27:18;;;;;;;1.52;0.80;;;;;;;;;;5112056;27;20422;-67
2023/08/07 00:31:05;;;;;;;1.33;0.80;;;;;;;;;;5070548;28;20387;-68
2023/08/07 00:35:31;;;;;;;0.98;0.57;;;;;;;;;;5031082;28;20926;-67
2023/08/07 00:39:38;;;;;;;2.22;0.52;;;;;;;;;;5071397;28;20411;-68
2023/08/07 00:42:05;;;;;;;1.55;0.68;;;;;;;;;;5070758;28;20414;-68
2023/08/07 00:44:31;;;;;;;10.32;0.98;;;;;;;;;;5070319;28;20433;-68
2023/08/07 00:46:57;;;;;;;3.78;1.10;;;;;;;;;;5070694;28;20071;-68
2023/08/07 00:49:23;;;;;;;1.65;0.80;;;;;;;;;;5070678;28;20021;-68
2023/08/07 00:52:03;;;;;;;1.63;0.75;;;;;;;;;;5090798;27;20734;-67
2023/08/07 00:54:30;;;;;;;1.80;0.75;;;;;;;;;;5091298;28;20074;-67
2023/08/07 00:58:44;;;;;;;1.23;0.80;;;;;;;;;;5111125;27;20576;-67
2023/08/07 01:01:10;;;;;;;7.88;0.98;;;;;;;;;;5111579;28;20468;-67
2023/08/07 01:03:36;;;;;;;0.93;0.60;;;;;;;;;;5111211;28;20038;-67
2023/08/07 01:06:02;;;;;;;1.67;0.70;;;;;;;;;;5110828;28;20103;-69
2023/08/07 01:08:29;;;;;;;2.15;0.75;;;;;;;;;;5111183;28;20415;-70
2023/08/07 01:11:06;;;;;;;1.50;0.77;;;;;;;;;;5111168;28;20099;-68
2023/08/07 01:13:41;;;;;;;3.25;1.05;;;;;;;;;;5110803;28;20024;-67
2023/08/07 01:16:14;;;;;;;3.25;1.08;;;;;;;;;;5111096;28;20111;-68
2023/08/07 01:18:40;;;;;;;;;;;;;;;;;;5111185;28;20039;-68
2023/08/07 01:26:55;;;;;;;2.95;0.77;;;;;;;;;;5111322;27;20765;-67
2023/08/07 01:30:43;;;;;;;2.97;0.85;;;;;;;;;;5173457;27;20118;-68
2023/08/07 01:33:11;;;;;;;1.77;0.90;;;;;;;;;;5152345;27;20050;-68
2023/08/07 01:35:42;;;;;;;1.75;0.75;;;;;;;;;;5152451;27;20030;-67
2023/08/07 01:38:08;;;;;;;1.88;0.70;;;;;;;;;;5133936;27;20019;-67
2023/08/07 01:40:35;;;;;;;1.63;0.70;;;;;;;;;;5151828;27;20029;-67
2023/08/07 01:43:01;;;;;;;5.32;0.80;;;;;;;;;;5152622;27;20483;-68
2023/08/07 01:45:28;;;;;;;1.63;0.90;;;;;;;;;;5152524;27;20420;-69
2023/08/07 01:49:10;;;;;;;1.40;0.73;;;;;;;;;;5070979;28;20430;-68
2023/08/07 01:53:47;;;;;;;1.80;0.93;;;;;;;;;;5071143;28;20717;-69
2023/08/07 01:56:13;;;;;;;2.88;0.98;;;;;;;;;;5070845;28;20025;-68
2023/08/07 01:59:25;;;;;;;3.25;1.00;;;;;;;;;;5111433;27;20566;-69
2023/08/07 02:05:08;;;;;;;2.33;0.80;;;;;;;;;;5111637;27;20785;-68
2023/08/07 02:07:34;;;;;;;4.30;1.10;;;;;;;;;;5111350;28;20028;-69
2023/08/07 02:10:00;;;;;;;3.22;1.08;;;;;;;;;;5110914;28;20020;-69
2023/08/07 02:14:02;;;;;;;2.83;1.00;;;;;;;;;;5111575;27;20381;-69
2023/08/07 02:17:32;;;;;;;2.08;0.95;;;;;;;;;;5111431;27;20389;-67
2023/08/07 02:21:30;;;;;;;2.65;1.00;;;;;;;;;;5071511;28;20388;-68
2023/08/07 02:23:56;;;;;;;2.53;0.77;;;;;;;;;;5070428;28;20033;-68
2023/08/07 02:29:54;;;;;;;2.63;0.88;;;;;;;;;;5111122;27;20500;-67
2023/08/07 02:33:41;;;;;;;1.80;0.90;;;;;;;;;;5071498;28;20419;-68
2023/08/07 02:39:47;;;;;;;1.92;0.93;;;;;;;;;;5111736;27;20397;-68
2023/08/07 02:44:00;;;;;;;2.60;1.10;;;;;;;;;;5111107;27;20384;-67
2023/08/07 02:46:26;;;;;;;4.32;1.48;;;;;;;;;;5111271;28;20031;-68
2023/08/07 02:59:22;;;;;;;2.45;1.10;;;;;;;;;;5070329;28;20449;-67
2023/08/07 03:03:18;;;;;;;5.28;1.30;;;;;;;;;;5112072;27;20388;-68
2023/08/07 03:09:29;;;;;;;2.92;0.95;;;;;;;;;;5071513;28;20864;-67
2023/08/07 03:16:17;;;;;;;2.60;0.80;;;;;;;;;;5111873;27;20438;-68
2023/08/07 03:18:43;;;;;;;1.98;1.00;;;;;;;;;;5111202;28;20027;-67
2023/08/07 03:21:31;;;;;;;2.50;0.80;;;;;;;;;;5132359;27;20421;-67
2023/08/07 03:23:57;;;;;;;4.35;1.17;;;;;;;;;;5131728;28;20092;-68
2023/08/07 03:26:24;;;;;;;2.85;1.45;;;;;;;;;;5131322;28;20076;-68
2023/08/07 03:28:50;;;;;;;3.97;1.20;;;;;;;;;;5113343;28;20028;-67
2023/08/07 03:32:57;;;;;;;2.33;1.10;;;;;;;;;;5111296;27;20401;-67
2023/08/07 03:35:54;;;;;;;1.90;1.02;;;;;;;;;;5111749;27;20464;-67
2023/08/07 03:38:20;;;;;;;1.67;1.00;;;;;;;;;;5111298;28;20032;-68
2023/08/07 03:44:35;;;;;;;1.92;0.95;;;;;;;;;;5111426;27;20454;-68
2023/08/07 03:47:01;;;;;;;1.48;0.85;;;;;;;;;;5111101;28;20110;-68
2023/08/07 03:49:27;;;;;;;3.22;1.50;;;;;;;;;;5111413;28;20024;-68
2023/08/07 03:56:05;;;;;;;1.98;0.90;;;;;;;;;;5111604;27;20408;-67
2023/08/07 04:00:01;;;;;;;1.67;0.98;;;;;;;;;;5111803;27;20761;-67
2023/08/07 04:06:30;;;;;;;2.53;1.02;;;;;;;;;;5111867;27;20394;-69
2023/08/07 04:12:09;;;;;;;1.65;0.90;;;;;;;;;;5112144;27;20420;-68
2023/08/07 04:14:35;;;;;;;3.88;1.20;;;;;;;;;;5110873;28;20019;-68
2023/08/07 04:17:02;;;;;;;5.25;1.65;;;;;;;;;;5111334;28;20024;-68
2023/08/07 04:19:54;;;;;;;1.90;1.05;;;;;;;;;;5071126;28;20903;-68
2023/08/07 04:26:11;;;;;;;3.22;0.95;;;;;;;;;;5152825;27;20386;-68
2023/08/07 04:28:37;;;;;;;3.20;1.38;;;;;;;;;;5152272;27;20023;-68
2023/08/07 04:31:03;;;;;;;1.40;0.80;;;;;;;;;;5152579;27;20027;-68
2023/08/07 04:33:29;;;;;;;1.70;0.88;;;;;;;;;;5152455;27;20098;-68
2023/08/07 04:36:06;;;;;;;2.05;0.90;;;;;;;;;;5111361;27;20430;-67
2023/08/07 04:38:32;;;;;;;3.33;1.15;;;;;;;;;;5110068;28;20059;-68
2023/08/07 04:40:58;;;;;;;2.20;1.00;;;;;;;;;;5111200;28;20524;-68
2023/08/07 04:43:25;;;;;;;2.95;0.90;;;;;;;;;;5110851;28;20093;-68
2023/08/07 04:45:51;;;;;;;2.55;1.30;;;;;;;;;;5111758;28;20027;-67
2023/08/07 04:49:03;;;;;;;1.85;0.98;;;;;;;;;;5071297;28;20425;-68
2023/08/07 04:52:16;;;;;;;1.23;0.90;;;;;;;;;;5111784;27;20401;-68
2023/08/07 04:55:08;;;;;;;2.03;0.98;;;;;;;;;;5111633;27;20384;-68
2023/08/07 04:58:42;;;;;;;1.83;1.00;;;;;;;;;;5070500;28;20557;-68
2023/08/07 05:01:08;;;;;;;1.40;0.80;;;;;;;;;;5070728;28;20025;-68
2023/08/07 05:03:35;;;;;;;2.70;0.98;;;;;;;;;;5070785;28;20052;-68
2023/08/07 05:07:01;;;;;;;1.88;1.10;;;;;;;;;;5112032;27;20404;-67
2023/08/07 05:10:01;;;;;;;1.92;1.00;;;;;;;;;;5111750;27;20396;-68
2023/08/07 05:13:24;;;;;;;2.78;1.20;;;;;;;;;;5111787;27;20584;-68
2023/08/07 05:15:50;;;;;;;3.75;1.10;;;;;;;;;;5111511;28;20085;-67
2023/08/07 05:22:22;;;;;;;1.00;0.57;;;;;;;;;;5111959;27;20797;-67
2023/08/07 05:25:27;;;;;;;1.45;1.10;;;;;;;;;;5111466;27;20454;-67
2023/08/07 05:29:12;;;;;;;3.30;1.55;;;;;;;;;;5111596;27;20384;-69
2023/08/07 05:31:40;;;;;;;5.95;2.40;;;;;;;;;;5109951;28;20478;-68
2023/08/07 05:34:06;;;;;;;6.90;3.25;;;;;;;;;;5110818;28;20435;-69
2023/08/07 05:36:58;;;;;;;7.45;3.85;;;;;;;;;;5111755;27;20123;-69
2023/08/07 05:39:24;;;;;;;7.72;4.63;;;;;;;;;;5111153;28;20067;-69
2023/08/07 05:41:53;;;;;;;4.90;2.55;;;;;;;;;;5111381;28;20024;-68
2023/08/07 05:44:19;;;;;;;5.35;1.50;;;;;;;;;;5111297;28;20051;-68
2023/08/07 05:46:45;;;;;;;2.65;1.30;;;;;;;;;;5110771;28;20024;-68
2023/08/07 05:49:12;;;;;;;4.18;1.10;;;;;;;;;;5095406;28;20025;-68
2023/08/07 05:53:33;;;;;;;1.95;0.80;;;;;;;;;;5090948;27;20747;-68
2023/08/07 05:56:56;;;;;;;1.65;0.98;;;;;;;;;;5111492;27;20924;-68
2023/08/07 05:59:22;;;;;;;1.60;0.90;;;;;;;;;;5111337;28;20053;-68
2023/08/07 06:02:29;;;;;;;2.33;1.15;;;;;;;;;;5130699;27;20886;-68
2023/08/07 06:04:55;;;;;;;1.80;0.95;;;;;;;;;;5113299;28;20027;-69
2023/08/07 06:07:22;;;;;;;1.92;1.05;;;;;;;;;;5129184;28;20019;-68
2023/08/07 06:09:48;;;;;;;3.10;1.05;;;;;;;;;;5129590;28;20106;-68
2023/08/07 06:12:14;;;;;;;2.10;0.90;;;;;;;;;;5129514;28;20023;-68
2023/08/07 06:15:55;;;;;;;2.25;0.82;;;;;;;;;;5068157;28;20441;-68
2023/08/07 06:18:21;;;;;;;4.45;1.40;;;;;;;;;;5068625;28;20035;-68
2023/08/07 06:21:20;;;;;;;1.30;0.90;;;;;;;;;;5108674;27;20381;-69
2023/08/07 06:25:52;;;;;;;2.90;0.93;;;;;;;;;;5071342;28;20440;-68
2023/08/07 06:28:18;;;;;;;2.85;1.25;;;;;;;;;;5068267;28;20450;-69
2023/08/07 06:31:45;;;;;;;2.20;1.00;;;;;;;;;;5109148;27;20592;-69
2023/08/07 06:34:12;;;;;;;1.33;0.90;;;;;;;;;;5125005;28;20077;-69
2023/08/07 06:36:39;;;;;;;1.45;1.08;;;;;;;;;;5108679;28;20031;-69
2023/08/07 06:41:36;;;;;;;1.40;0.80;;;;;;;;;;5108836;27;20400;-68
2023/08/07 06:44:02;;;;;;;2.22;1.17;;;;;;;;;;5110010;28;20024;-69
2023/08/07 06:46:28;;;;;;;3.10;1.15;;;;;;;;;;5109112;28;20070;-69
2023/08/07 06:48:55;;;;;;;5.97;2.97;;;;;;;;;;5109097;28;20046;-69
2023/08/07 06:51:21;;;;;;;2.92;1.55;;;;;;;;;;5108547;28;20024;-69
2023/08/07 06:53:47;;;;;;;3.80;1.83;;;;;;;;;;5107735;28;20483;-70
2023/08/07 06:56:13;;;;;;;2.47;1.23;;;;;;;;;;5108775;28;20099;-70
2023/08/07 06:58:39;;;;;;;1.58;1.00;;;;;;;;;;5109074;28;20020;-70
2023/08/07 07:01:06;;;;;;;1.55;0.90;;;;;;;;;;5109103;28;20488;-69
2023/08/07 07:03:40;;;;;;;3.45;1.40;;;;;;;;;;5108617;27;20392;-68
2023/08/07 07:07:30;;;;;;;2.03;1.08;;;;;;;;;;5084007;28;20399;-68
2023/08/07 07:10:00;;;;;;;3.58;1.25;;;;;;;;;;5068770;28;20075;-69
2023/08/07 07:12:26;;;;;;;1.52;0.80;;;;;;;;;;5068771;28;20358;-68
2023/08/07 07:16:39;;;;;;;5.82;2.70;;;;;;;;;;5070235;28;20429;-68
2023/08/07 07:19:08;;;;;;;3.80;1.80;;;;;;;;;;5070320;28;20053;-68
2023/08/07 07:21:34;;;;;;;2.50;1.00;;;;;;;;;;5070522;28;20040;-68
2023/08/07 07:24:01;;;;;;;1.50;0.80;;;;;;;;;;5070692;28;20028;-68
2023/08/07 07:27:22;;;;;;;2.65;0.63;;;;;;;;;;5070718;28;20452;-68
2023/08/07 07:33:41;;;;;;;1.50;1.00;;;;;;;;;;5111326;27;20388;-68
2023/08/07 07:36:07;;;;;;;5.00;1.27;;;;;;;;;;5111208;28;20530;-68
2023/08/07 07:38:33;;;;;;;2.17;0.90;;;;;;;;;;5109137;28;20028;-68
2023/08/07 07:42:59;;;;;;;1.67;1.00;;;;;;;;;;5070896;28;20422;-67
2023/08/07 07:45:25;;;;;;;2.00;0.82;;;;;;;;;;5070482;28;20078;-66
2023/08/07 07:47:51;;;;;;;1.88;1.10;;;;;;;;;;5070003;28;20465;-68
2023/08/07 07:50:17;;;;;;;1.90;0.90;;;;;;;;;;5070732;28;20060;-68
2023/08/07 07:52:43;;;;;;;2.63;1.00;;;;;;;;;;5070136;28;20491;-69
2023/08/07 07:58:00;;;;;;;2.05;0.80;;;;;;;;;;5070993;28;20387;-69
2023/08/07 08:00:27;;;;;;;1.67;0.80;;;;;;;;;;5070381;28;20021;-68
2023/08/07 08:04:21;;;;;;;2.08;0.98;;;;;;;;;;5111344;27;20768;-70
2023/08/07 08:06:48;;;;;;;1.63;0.90;;;;;;;;;;5110892;28;20107;-69
2023/08/07 08:09:15;;;;;;;1.63;0.80;;;;;;;;;;5111116;28;20469;-70
2023/08/07 08:11:41;;;;;;;4.72;1.13;;;;;;;;;;5111127;28;20098;-69
2023/08/07 08:14:07;;;;;;;2.72;0.90;;;;;;;;;;5110661;28;20031;-69
2023/08/07 08:16:33;;;;;;;2.65;0.85;;;;;;;;;;5111115;28;20027;-69
2023/08/07 08:18:59;;;;;;;3.95;0.80;;;;;;;;;;5109673;28;20480;-69
2023/08/07 08:21:25;;;;;;;0.95;0.70;;;;;;;;;;5110578;28;20027;-70
2023/08/07 08:23:51;;;;;;;1.55;0.82;;;;;;;;;;5110825;28;20032;-74
2023/08/07 08:26:54;;;;;;;2.90;0.73;;;;;;;;;;5111510;27;21042;-72
2023/08/07 08:29:41;;;;;;;0.73;0.55;;;;;;;;;;5111118;27;20398;-73
2023/08/07 08:32:49;;;;;;;3.45;0.80;;;;;;;;;;5111427;27;20839;-69
2023/08/07 08:35:15;;;;;;;1.02;0.70;;;;;;;;;;5110729;28;20031;-70
2023/08/07 08:37:41;;;;;;;2.35;0.70;;;;;;;;;;5109845;28;20110;-71
2023/08/07 08:40:25;;;;;;;2.22;0.88;;;;;;;;;;5070849;28;20787;-72
2023/08/07 08:42:53;;;;;;;2.00;0.82;;;;;;;;;;5070193;28;20032;-71
2023/08/07 08:46:53;;;;;;;1.13;0.68;;;;;;;;;;5111276;27;20438;-69
2023/08/07 08:49:22;;;;;;;1.25;0.73;;;;;;;;;;5109749;28;20087;-68
2023/08/07 08:51:48;;;;;;;2.38;0.80;;;;;;;;;;5109885;28;20024;-70
2023/08/07 08:54:15;;;;;;;2.55;0.60;;;;;;;;;;5111268;28;20034;-70
2023/08/07 08:56:41;;;;;;;1.63;0.68;;;;;;;;;;5094620;28;20024;-69
2023/08/07 08:59:07;;;;;;;3.75;0.70;;;;;;;;;;5086915;28;20531;-68
2023/08/07 09:01:34;;;;;;;1.65;0.77;;;;;;;;;;5086686;28;20103;-69
2023/08/07 09:05:24;;;;;;;0.90;0.50;;;;;;;;;;5107547;27;20408;-70
2023/08/07 09:07:50;;;;;;;1.20;0.65;;;;;;;;;;5108982;28;20052;-68
2023/08/07 09:10:17;;;;;;;2.15;0.80;;;;;;;;;;5108273;28;20376;-68
2023/08/07 09:14:58;;;;;;;2.63;1.08;;;;;;;;;;5070035;28;20430;-69
2023/08/07 09:17:35;;;;;;;2.15;0.80;;;;;;;;;;5070327;28;20032;-68
2023/08/07 09:20:04;;;;;;;2.13;0.70;;;;;;;;;;5070931;28;20021;-67
2023/08/07 09:22:30;;;;;;;1.35;0.60;;;;;;;;;;5086302;28;20025;-68
2023/08/07 09:24:59;;;;;;;1.33;0.60;;;;;;;;;;5070136;28;20432;-69
2023/08/07 09:27:26;;;;;;;2.53;0.77;;;;;;;;;;5086168;28;20027;-69
2023/08/07 09:29:52;;;;;;;2.42;0.90;;;;;;;;;;5070475;28;20428;-69
2023/08/07 09:32:18;;;;;;;2.13;0.65;;;;;;;;;;5070034;28;20036;-68
2023/08/07 09:34:44;;;;;;;1.52;0.75;;;;;;;;;;5070504;28;20580;-68
2023/08/07 09:37:31;;;;;;;1.33;0.73;;;;;;;;;;5112132;27;20450;-68
2023/08/07 09:40:00;;;;;;;2.72;0.70;;;;;;;;;;5110831;28;20434;-68
2023/08/07 09:42:26;;;;;;;1.73;0.80;;;;;;;;;;5111167;28;20031;-69
2023/08/07 09:44:52;;;;;;;1.88;0.60;;;;;;;;;;5111233;28;20098;-69
2023/08/07 09:47:19;;;;;;;1.33;0.50;;;;;;;;;;5110725;28;20034;-69
2023/08/07 09:49:46;;;;;;;1.30;0.60;;;;;;;;;;5111141;28;20031;-68
2023/08/07 09:52:14;;;;;;;2.40;0.80;;;;;;;;;;5109337;28;20024;-69
2023/08/07 09:54:40;;;;;;;1.40;0.63;;;;;;;;;;5111101;28;20467;-70
2023/08/07 09:57:07;;;;;;;1.15;0.75;;;;;;;;;;5109609;28;20400;-68
2023/08/07 09:59:33;;;;;;;2.03;0.88;;;;;;;;;;5110564;28;20433;-69
2023/08/07 10:02:02;;;;;;;1.25;0.75;;;;;;;;;;5111034;28;20035;-69
2023/08/07 10:04:28;;;;;;;2.25;0.68;;;;;;;;;;5111192;28;20015;-68
2023/08/07 10:06:54;;;;;;;2.25;0.60;;;;;;;;;;5110480;28;20035;-68
2023/08/07 10:09:21;;;;;;;1.08;0.63;;;;;;;;;;5110747;28;20464;-71
2023/08/07 10:11:47;;;;;;;2.20;0.63;;;;;;;;;;5110832;28;20064;-70
2023/08/07 10:14:14;;;;;;;2.35;0.80;;;;;;;;;;5110280;28;20028;-69
2023/08/07 10:16:41;;;;;;;0.65;0.52;;;;;;;;;;5110609;28;20510;-69
2023/08/07 10:19:08;;;;;;;0.80;0.52;;;;;;;;;;5110552;28;20019;-69
2023/08/07 10:21:38;;;;;;;1.15;0.70;;;;;;;;;;5110188;28;20479;-70
2023/08/07 10:24:05;;;;;;;1.55;0.45;;;;;;;;;;5110567;28;20023;-70
2023/08/07 10:26:32;;;;;;;1.60;0.73;;;;;;;;;;5110632;28;20032;-70
2023/08/07 10:28:59;;;;;;;1.33;0.57;;;;;;;;;;5109970;28;20035;-71
2023/08/07 10:31:26;;;;;;;0.90;0.50;;;;;;;;;;5110614;28;20380;-70
2023/08/07 10:33:52;;;;;;;0.70;0.40;;;;;;;;;;5109004;28;20062;-70
2023/08/07 10:36:18;;;;;;;2.20;0.88;;;;;;;;;;5109561;28;20136;-68
2023/08/07 10:38:45;;;;;;;1.65;0.65;;;;;;;;;;5108923;28;20065;-72
2023/08/07 10:41:15;;;;;;;1.27;0.52;;;;;;;;;;5110164;28;20023;-70
2023/08/07 10:43:42;;;;;;;0.35;0.30;;;;;;;;;;5109700;28;20028;-70
2023/08/07 10:46:11;;;;;;;1.80;0.43;;;;;;;;;;5109984;28;20068;-69
2023/08/07 10:48:46;;;;;;;2.22;0.80;;;;;;;;;;5097348;28;20020;-70
2023/08/07 10:51:13;;;;;;;1.30;0.70;;;;;;;;;;5096494;28;20019;-70
2023/08/07 10:53:45;;;;;;;0.90;0.50;;;;;;;;;;5096330;28;20024;-69
2023/08/07 10:56:31;;;;;;;2.77;1.30;;;;;;;;;;5095835;28;20166;-68
2023/08/07 10:58:57;;;;;;;0.80;0.52;;;;;;;;;;5096089;28;20027;-68
2023/08/07 11:01:23;;;;;;;1.60;0.95;;;;;;;;;;5096206;28;20032;-69
2023/08/07 11:03:53;;;;;;;1.65;0.82;;;;;;;;;;5095712;28;20362;-69
2023/08/07 11:06:40;;;;;;;2.72;0.80;;;;;;;;;;5096120;28;20024;-69
2023/08/07 11:09:08;;;;;;;0.98;0.50;;;;;;;;;;5096044;28;20016;-69
2023/08/07 11:11:39;;;;;;;0.98;0.52;;;;;;;;;;5095602;28;20375;-69
2023/08/07 11:14:09;;;;;;;1.10;0.60;;;;;;;;;;5096226;28;20021;-69
2023/08/07 11:16:35;;;;;;;1.65;0.60;;;;;;;;;;5095407;28;20032;-69
2023/08/07 11:19:01;;;;;;;2.50;0.60;;;;;;;;;;5094639;28;20020;-68
2023/08/07 11:21:27;;;;;;;0.90;0.50;;;;;;;;;;5095906;28;20439;-69
2023/08/07 11:23:54;;;;;;;1.05;0.40;;;;;;;;;;5095352;28;20384;-69
2023/08/07 11:26:21;;;;;;;0.82;0.30;;;;;;;;;;5095905;28;20107;-69
2023/08/07 11:28:48;;;;;;;7.38;0.77;;;;;;;;;;5095984;28;20020;-69
2023/08/07 11:31:14;;;;;;;1.73;0.82;;;;;;;;;;5095217;28;20039;-69
2023/08/07 11:33:41;;;;;;;1.67;0.50;;;;;;;;;;5095570;28;20464;-69
2023/08/07 11:36:13;;;;;;;1.20;0.60;;;;;;;;;;5095340;28;20408;-68
2023/08/07 11:38:42;;;;;;;1.00;0.70;;;;;;;;;;5095322;28;20016;-68
2023/08/07 11:41:08;;;;;;;1.40;0.88;;;;;;;;;;5095456;28;20388;-68
2023/08/07 11:43:35;;;;;;;3.35;1.08;;;;;;;;;;5095406;28;20074;-69
2023/08/07 11:46:02;;;;;;;2.67;0.80;;;;;;;;;;5093685;28;20045;-68
2023/08/07 11:48:29;;;;;;;1.73;0.60;;;;;;;;;;5095281;28;20031;-69
2023/08/07 11:50:56;;;;;;;1.08;0.50;;;;;;;;;;5095151;28;20024;-69
2023/08/07 11:53:23;;;;;;;1.60;0.60;;;;;;;;;;5094935;28;20380;-69
2023/08/07 11:56:14;;;;;;;1.33;0.93;;;;;;;;;;5095109;28;20028;-69
2023/08/07 11:58:40;;;;;;;1.92;0.82;;;;;;;;;;5094505;28;20047;-69
2023/08/07 12:01:07;;;;;;;2.08;1.15;;;;;;;;;;5094743;28;20077;-69
2023/08/07 12:03:36;;;;;;;1.13;0.40;;;;;;;;;;5095091;28;20141;-70
2023/08/07 12:06:03;;;;;;;1.90;0.60;;;;;;;;;;5094648;28;20024;-69
2023/08/07 12:08:37;;;;;;;1.27;0.52;;;;;;;;;;5094954;28;20024;-69
2023/08/07 12:11:04;;;;;;;1.00;0.60;;;;;;;;;;5094904;28;20020;-70
2023/08/07 12:13:35;;;;;;;1.27;0.57;;;;;;;;;;5094512;28;20024;-69
2023/08/07 12:16:03;;;;;;;1.45;0.45;;;;;;;;;;5094877;28;20465;-69
2023/08/07 12:18:30;;;;;;;4.45;1.70;;;;;;;;;;5094690;28;20020;-69
2023/08/07 12:21:06;;;;;;;3.90;1.23;;;;;;;;;;5094567;28;20028;-69
2023/08/07 12:23:37;;;;;;;2.20;1.10;;;;;;;;;;5094549;28;20480;-68
2023/08/07 12:26:06;;;;;;;1.63;0.82;;;;;;;;;;5094439;28;20032;-69
2023/08/07 12:28:32;;;;;;;5.13;0.60;;;;;;;;;;5092893;28;20461;-69
2023/08/07 12:30:58;;;;;;;8.25;2.53;;;;;;;;;;5094482;28;20031;-70
2023/08/07 12:33:24;;;;;;;8.90;2.00;;;;;;;;;;5093170;28;20115;-70
2023/08/07 12:35:51;;;;;;;7.88;2.03;;;;;;;;;;5093669;28;20051;-68
2023/08/07 12:38:17;;;;;;;3.17;0.93;;;;;;;;;;5094319;28;20058;-70
2023/08/07 12:40:43;;;;;;;1.92;0.88;;;;;;;;;;5094410;28;20065;-70
2023/08/07 12:43:09;;;;;;;6.55;2.08;;;;;;;;;;5093857;28;20097;-69
2023/08/07 12:45:35;;;;;;;5.50;1.90;;;;;;;;;;5092907;28;20464;-69
2023/08/07 12:48:02;;;;;;;3.15;1.02;;;;;;;;;;5093779;28;20104;-70
2023/08/07 12:50:28;;;;;;;3.85;1.08;;;;;;;;;;5094169;28;20020;-70
2023/08/07 12:52:54;;;;;;;2.45;1.00;;;;;;;;;;5094315;28;20024;-69
2023/08/07 12:55:21;;;;;;;1.27;0.85;;;;;;;;;;5093603;28;20024;-69
2023/08/07 12:57:49;;;;;;;1.77;0.90;;;;;;;;;;5094172;28;20103;-70
2023/08/07 13:00:15;;;;;;;1.58;0.70;;;;;;;;;;5094003;28;20027;-70
2023/08/07 13:02:42;;;;;;;1.38;0.77;;;;;;;;;;5093341;28;20060;-70
2023/08/07 13:05:09;;;;;;;7.90;1.33;;;;;;;;;;5092782;28;20020;-70
2023/08/07 13:07:35;;;;;;;1.95;0.88;;;;;;;;;;5093776;28;20388;-69
2023/08/07 13:10:01;;;;;;;1.42;0.60;;;;;;;;;;5093168;28;20036;-69
2023/08/07 13:12:27;;;;;;;2.75;0.85;;;;;;;;;;5094047;28;20059;-69
2023/08/07 13:14:54;;;;;;;2.40;0.60;;;;;;;;;;5093777;28;20095;-69
2023/08/07 13:17:20;;;;;;;2.10;1.20;;;;;;;;;;5093151;28;20032;-70
2023/08/07 13:19:46;;;;;;;1.98;0.80;;;;;;;;;;5094236;28;20473;-68
2023/08/07 13:22:12;;;;;;;1.75;0.85;;;;;;;;;;5093671;28;20119;-69
2023/08/07 13:24:38;;;;;;;1.92;0.73;;;;;;;;;;5091966;28;20038;-68
2023/08/07 13:27:04;;;;;;;2.03;0.75;;;;;;;;;;5093569;28;20024;-68
2023/08/07 13:29:30;;;;;;;1.13;0.60;;;;;;;;;;5094095;28;20024;-68
2023/08/07 13:31:56;;;;;;;0.90;0.68;;;;;;;;;;5093065;28;20032;-68
2023/08/07 13:34:22;;;;;;;2.30;1.02;;;;;;;;;;5093444;28;20024;-68
2023/08/07 13:36:50;;;;;;;1.67;1.02;;;;;;;;;;5093264;28;20461;-68
2023/08/07 13:39:16;;;;;;;2.35;0.90;;;;;;;;;;5092947;28;20012;-68
2023/08/07 13:41:42;;;;;;;1.65;0.70;;;;;;;;;;5092219;28;20384;-69
2023/08/07 13:44:08;;;;;;;1.40;0.70;;;;;;;;;;5093590;28;20028;-68
2023/08/07 13:46:34;;;;;;;2.22;0.90;;;;;;;;;;5093083;28;20361;-70
2023/08/07 13:49:00;;;;;;;2.92;0.77;;;;;;;;;;5093382;28;20024;-70
2023/08/07 13:51:27;;;;;;;2.22;0.80;;;;;;;;;;5093177;28;20089;-69
2023/08/07 13:53:54;;;;;;;10.70;9.60;;;;;;;;;;5093263;28;20029;-68
2023/08/07 13:56:20;;;;;;;3.10;1.58;;;;;;;;;;5093766;28;20028;-68
2023/08/07 13:58:47;;;;;;;1.25;0.80;;;;;;;;;;5092973;28;20035;-69
2023/08/07 14:01:13;;;;;;;1.15;0.63;;;;;;;;;;5093388;28;20380;-69
2023/08/07 14:03:39;;;;;;;1.52;0.70;;;;;;;;;;5093211;28;20099;-69
2023/08/07 14:06:05;;;;;;;2.10;0.90;;;;;;;;;;5092765;28;20484;-69
2023/08/07 14:08:32;;;;;;;2.15;0.60;;;;;;;;;;5093470;28;20035;-70
2023/08/07 14:10:58;;;;;;;1.15;0.70;;;;;;;;;;5091936;28;20484;-69
2023/08/07 14:13:25;;;;;;;2.75;1.00;;;;;;;;;;5092989;28;20024;-69
2023/08/07 14:15:51;;;;;;;1.85;0.60;;;;;;;;;;5093098;28;20024;-70
2023/08/07 14:18:17;;;;;;;0.95;0.70;;;;;;;;;;5093169;28;20020;-69
2023/08/07 14:20:43;;;;;;;4.85;0.93;;;;;;;;;;5092710;28;20093;-69
2023/08/07 14:23:09;;;;;;;2.25;0.70;;;;;;;;;;5095247;28;20465;-69
2023/08/07 14:25:35;;;;;;;2.00;0.60;;;;;;;;;;5096946;28;20083;-70
2023/08/07 14:28:01;;;;;;;1.23;0.60;;;;;;;;;;5095090;28;20417;-68
2023/08/07 14:30:27;;;;;;;1.60;0.82;;;;;;;;;;5096753;28;20075;-70
2023/08/07 14:32:53;;;;;;;1.77;0.88;;;;;;;;;;5096978;28;20472;-70
2023/08/07 14:35:19;;;;;;;1.90;0.60;;;;;;;;;;5096013;28;20145;-68
2023/08/07 14:37:48;;;;;;;2.10;0.73;;;;;;;;;;5096653;28;20035;-69
2023/08/07 14:40:14;;;;;;;1.35;0.65;;;;;;;;;;5096681;28;20457;-69
2023/08/07 14:42:40;;;;;;;3.00;0.88;;;;;;;;;;5096147;28;20028;-70
2023/08/07 14:45:07;;;;;;;1.65;0.70;;;;;;;;;;5096542;28;20025;-69
2023/08/07 14:47:33;;;;;;;2.03;0.80;;;;;;;;;;5096092;28;20039;-69
2023/08/07 14:49:59;;;;;;;2.95;0.93;;;;;;;;;;5096430;28;20024;-69
2023/08/07 14:52:25;;;;;;;2.08;0.75;;;;;;;;;;5096376;28;20093;-69
2023/08/07 14:54:53;;;;;;;2.92;0.90;;;;;;;;;;5096130;28;20063;-69
2023/08/07 14:57:19;;;;;;;1.90;0.80;;;;;;;;;;5096180;28;20028;-69
2023/08/07 14:59:45;;;;;;;1.52;0.60;;;;;;;;;;5096216;28;20027;-69
2023/08/07 15:02:11;;;;;;;2.17;1.02;;;;;;;;;;5095772;28;20036;-69
2023/08/07 15:04:37;;;;;;;1.33;0.70;;;;;;;;;;5096196;28;20024;-69
2023/08/07 15:07:03;;;;;;;1.35;0.75;;;;;;;;;;5094767;28;20028;-69
2023/08/07 15:09:30;;;;;;;1.05;0.63;;;;;;;;;;5095720;28;20024;-69
2023/08/07 15:11:57;;;;;;;0.93;0.60;;;;;;;;;;5096236;28;20024;-68
2023/08/07 15:14:23;;;;;;;1.45;0.82;;;;;;;;;;5095992;28;20092;-69
2023/08/07 15:16:49;;;;;;;1.73;0.70;;;;;;;;;;5095536;28;20028;-69
2023/08/07 15:19:15;;;;;;;1.75;0.90;;;;;;;;;;5095906;28;20495;-69
2023/08/07 15:21:42;;;;;;;2.47;1.13;;;;;;;;;;5095795;28;20032;-68
2023/08/07 15:24:08;;;;;;;5.05;1.98;;;;;;;;;;5094105;28;20020;-68
2023/08/07 15:26:34;;;;;;;3.95;1.90;;;;;;;;;;5095704;28;20028;-69
2023/08/07 15:29:00;;;;;;;2.40;1.30;;;;;;;;;;5095972;28;20035;-69
2023/08/07 15:31:26;;;;;;;2.75;1.20;;;;;;;;;;5093955;28;20020;-69
2023/08/07 15:33:55;;;;;;;1.95;0.90;;;;;;;;;;5095644;28;20091;-69
2023/08/07 15:36:21;;;;;;;1.40;0.55;;;;;;;;;;5095326;28;20115;-69
2023/08/07 15:38:47;;;;;;;1.17;0.90;;;;;;;;;;5095255;28;20016;-69
2023/08/07 15:41:14;;;;;;;2.53;1.00;;;;;;;;;;5095505;28;20020;-69
2023/08/07 15:43:40;;;;;;;2.65;0.90;;;;;;;;;;5095388;28;20031;-69
2023/08/07 15:46:06;;;;;;;1.10;0.80;;;;;;;;;;5094953;28;20024;-69
2023/08/07 15:48:32;;;;;;;1.77;0.70;;;;;;;;;;5095569;28;20026;-68
2023/08/07 15:50:58;;;;;;;2.03;0.90;;;;;;;;;;5095049;28;20032;-69
2023/08/07 15:53:24;;;;;;;1.65;0.70;;;;;;;;;;5095213;28;20020;-68
2023/08/07 15:55:50;;;;;;;1.73;0.73;;;;;;;;;;5094974;28;20472;-69
2023/08/07 15:58:21;;;;;;;2.53;1.13;;;;;;;;;;5094758;28;20073;-68
2023/08/07 16:00:48;;;;;;;2.00;0.73;;;;;;;;;;5095383;28;20207;-68
2023/08/07 16:03:14;;;;;;;2.30;1.00;;;;;;;;;;5095124;28;20796;-69
2023/08/07 16:05:40;;;;;;;4.32;1.48;;;;;;;;;;5094652;28;20020;-69
2023/08/07 16:08:06;;;;;;;1.63;0.75;;;;;;;;;;5095000;28;20024;-69
2023/08/07 16:10:33;;;;;;;2.00;1.00;;;;;;;;;;5094839;28;20119;-70
2023/08/07 16:12:59;;;;;;;2.33;0.82;;;;;;;;;;5093115;28;20074;-69
2023/08/07 16:15:26;;;;;;;2.72;0.90;;;;;;;;;;5094676;28;20503;-69
2023/08/07 16:17:52;;;;;;;2.22;0.90;;;;;;;;;;5094714;28;20040;-70
2023/08/07 16:20:19;;;;;;;2.10;0.90;;;;;;;;;;5093218;28;20031;-69
2023/08/07 16:22:45;;;;;;;2.30;0.80;;;;;;;;;;5094574;28;20095;-69
2023/08/07 16:25:11;;;;;;;2.78;1.02;;;;;;;;;;5094519;28;20024;-69
2023/08/07 16:27:38;;;;;;;3.10;1.20;;;;;;;;;;5094087;28;20031;-69
2023/08/07 16:30:05;;;;;;;3.97;1.23;;;;;;;;;;5094443;28;20036;-69
2023/08/07 16:32:34;;;;;;;1.88;1.13;;;;;;;;;;5094584;28;20051;-70
2023/08/07 16:35:01;;;;;;;2.45;1.17;;;;;;;;;;5094025;28;20024;-69
2023/08/07 16:37:27;;;;;;;2.10;1.00;;;;;;;;;;5094132;28;20104;-67
2023/08/07 16:39:54;;;;;;;2.40;1.05;;;;;;;;;;5094666;28;20024;-69
2023/08/07 16:42:20;;;;;;;3.20;1.27;;;;;;;;;;5093817;28;20028;-68
2023/08/07 16:44:46;;;;;;;2.78;1.27;;;;;;;;;;5094202;28;20028;-68
2023/08/07 16:47:12;;;;;;;2.53;1.30;;;;;;;;;;5093599;28;20028;-68
2023/08/07 16:49:38;;;;;;;2.28;1.17;;;;;;;;;;5094148;28;20024;-70